PRIVATE WETTERSTATION BILLIGHEIM-ALLFELD                       ZURCK
Wetterdaten: Samstag, 12.04.2014
Datum Zeit Temp. A. Temp. A. min Temp. A. max Feuchte A. Luftdruck Regen Wind Richtung Richtung Sonnenschein ET Solar Taupunkt Windchill Windben Empfang
12.04.2014 00:00 9,3 C 9,2 C 9,6 C 75 % 1016,5 hPa 0,0 l/m 0,0 km/h (0 Bft) W-NW 292 0 min 0,025 mm 0 W/m 5,1 C 9,3 C 4,8 km/h (1 Bft) 98 %
12.04.2014 00:10 9,1 C 9,1 C 9,2 C 75 % 1016,3 hPa 0,0 l/m 0,0 km/h (0 Bft) N 360 0 min 0,000 mm 0 W/m 4,9 C 9,1 C 1,6 km/h (1 Bft) 98 %
12.04.2014 00:20 9,1 C 9,1 C 9,1 C 76 % 1016,3 hPa 0,0 l/m 0,0 km/h (0 Bft) O-SO 112 0 min 0,000 mm 0 W/m 5,1 C 9,1 C 4,8 km/h (1 Bft) 97 %
12.04.2014 00:30 8,9 C 8,9 C 9,1 C 77 % 1016,3 hPa 0,0 l/m 0,0 km/h (0 Bft) O-SO 112 0 min 0,000 mm 0 W/m 5,1 C 8,9 C 3,2 km/h (1 Bft) 98 %
12.04.2014 00:40 8,8 C 8,8 C 8,9 C 77 % 1016,5 hPa 0,0 l/m 1,6 km/h (1 Bft) NW 315 0 min 0,000 mm 0 W/m 5,0 C 8,8 C 6,4 km/h (2 Bft) 97 %
12.04.2014 00:50 8,7 C 8,7 C 8,8 C 77 % 1016,5 hPa 0,0 l/m 0,0 km/h (0 Bft) N 360 0 min 0,000 mm 0 W/m 4,9 C 8,7 C 4,8 km/h (1 Bft) 98 %
12.04.2014 01:00 8,7 C 8,7 C 8,7 C 76 % 1016,4 hPa 0,0 l/m 0,0 km/h (0 Bft) N 360 0 min 0,025 mm 0 W/m 4,7 C 8,7 C 3,2 km/h (1 Bft) 97 %
12.04.2014 01:10 8,5 C 8,5 C 8,7 C 77 % 1016,3 hPa 0,0 l/m 0,0 km/h (0 Bft) N 360 0 min 0,000 mm 0 W/m 4,7 C 8,5 C 3,2 km/h (1 Bft) 98 %
12.04.2014 01:20 8,3 C 8,3 C 8,6 C 78 % 1016,4 hPa 0,0 l/m 0,0 km/h (0 Bft) N 360 0 min 0,000 mm 0 W/m 4,7 C 8,3 C 1,6 km/h (1 Bft) 98 %
12.04.2014 01:30 8,3 C 8,3 C 8,3 C 78 % 1016,2 hPa 0,0 l/m 0,0 km/h (0 Bft) N 360 0 min 0,000 mm 0 W/m 4,7 C 8,3 C 3,2 km/h (1 Bft) 98 %
12.04.2014 01:40 8,1 C 8,1 C 8,3 C 79 % 1016,2 hPa 0,0 l/m 0,0 km/h (0 Bft) N 360 0 min 0,000 mm 0 W/m 4,7 C 8,1 C 3,2 km/h (1 Bft) 97 %
12.04.2014 01:50 8,0 C 8,0 C 8,1 C 80 % 1016,1 hPa 0,0 l/m 0,0 km/h (0 Bft) N 360 0 min 0,000 mm 0 W/m 4,8 C 8,0 C 1,6 km/h (1 Bft) 98 %
12.04.2014 02:00 8,0 C 8,0 C 8,0 C 80 % 1016,1 hPa 0,0 l/m 0,0 km/h (0 Bft) N 360 0 min 0,025 mm 0 W/m 4,8 C 8,0 C 3,2 km/h (1 Bft) 98 %
12.04.2014 02:10 7,8 C 7,8 C 8,0 C 80 % 1015,8 hPa 0,0 l/m 0,0 km/h (0 Bft) N 360 0 min 0,000 mm 0 W/m 4,6 C 7,8 C 3,2 km/h (1 Bft) 88 %
12.04.2014 02:20 7,6 C 7,6 C 7,8 C 81 % 1015,8 hPa 0,0 l/m 0,0 km/h (0 Bft) N 360 0 min 0,000 mm 0 W/m 4,6 C 7,6 C 3,2 km/h (1 Bft) 97 %
12.04.2014 02:30 7,4 C 7,4 C 7,6 C 81 % 1015,7 hPa 0,0 l/m 0,0 km/h (0 Bft) N 360 0 min 0,000 mm 0 W/m 4,4 C 7,4 C 3,2 km/h (1 Bft) 98 %
12.04.2014 02:40 7,3 C 7,3 C 7,4 C 82 % 1015,5 hPa 0,0 l/m 0,0 km/h (0 Bft) N 360 0 min 0,000 mm 0 W/m 4,4 C 7,3 C 1,6 km/h (1 Bft) 98 %
12.04.2014 02:50 7,3 C 7,3 C 7,3 C 82 % 1015,5 hPa 0,0 l/m 0,0 km/h (0 Bft) N 360 0 min 0,000 mm 0 W/m 4,4 C 7,3 C 4,8 km/h (1 Bft) 99 %
12.04.2014 03:00 7,0 C 7,0 C 7,2 C 83 % 1015,5 hPa 0,0 l/m 0,0 km/h (0 Bft) N 360 0 min 0,000 mm 0 W/m 4,3 C 7,0 C 3,2 km/h (1 Bft) 100 %
12.04.2014 03:10 6,8 C 6,8 C 7,0 C 83 % 1015,5 hPa 0,0 l/m 0,0 km/h (0 Bft) N 360 0 min 0,000 mm 0 W/m 4,1 C 6,8 C 3,2 km/h (1 Bft) 100 %
12.04.2014 03:20 6,6 C 6,6 C 6,8 C 83 % 1015,5 hPa 0,0 l/m 0,0 km/h (0 Bft) N 360 0 min 0,000 mm 0 W/m 3,9 C 6,6 C 1,6 km/h (1 Bft) 100 %
12.04.2014 03:30 6,5 C 6,5 C 6,6 C 84 % 1015,4 hPa 0,0 l/m 0,0 km/h (0 Bft) N 360 0 min 0,000 mm 0 W/m 4,0 C 6,5 C 3,2 km/h (1 Bft) 99 %
12.04.2014 03:40 6,5 C 6,5 C 6,5 C 84 % 1015,3 hPa 0,0 l/m 0,0 km/h (0 Bft) N 360 0 min 0,000 mm 0 W/m 4,0 C 6,5 C 1,6 km/h (1 Bft) 100 %
12.04.2014 03:50 6,3 C 6,3 C 6,5 C 84 % 1015,4 hPa 0,0 l/m 0,0 km/h (0 Bft) N 360 0 min 0,000 mm 0 W/m 3,8 C 6,3 C 4,8 km/h (1 Bft) 100 %
12.04.2014 04:00 6,2 C 6,2 C 6,3 C 85 % 1015,3 hPa 0,0 l/m 0,0 km/h (0 Bft) N 360 0 min 0,000 mm 0 W/m 3,9 C 6,2 C 1,6 km/h (1 Bft) 100 %
12.04.2014 04:10 6,1 C 6,1 C 6,2 C 85 % 1015,3 hPa 0,0 l/m 0,0 km/h (0 Bft) N 360 0 min 0,000 mm 0 W/m 3,8 C 6,1 C 1,6 km/h (1 Bft) 100 %
12.04.2014 04:20 6,1 C 6,1 C 6,1 C 85 % 1015,3 hPa 0,0 l/m 0,0 km/h (0 Bft) N 360 0 min 0,000 mm 0 W/m 3,8 C 6,1 C 3,2 km/h (1 Bft) 99 %
12.04.2014 04:30 6,0 C 6,0 C 6,1 C 85 % 1015,4 hPa 0,0 l/m 0,0 km/h (0 Bft) N 360 0 min 0,000 mm 0 W/m 3,7 C 6,0 C 3,2 km/h (1 Bft) 89 %
12.04.2014 04:40 5,9 C 5,9 C 6,0 C 85 % 1015,2 hPa 0,0 l/m 0,0 km/h (0 Bft) N 360 0 min 0,000 mm 0 W/m 3,6 C 5,9 C 1,6 km/h (1 Bft) 100 %
12.04.2014 04:50 5,8 C 5,8 C 5,9 C 86 % 1015,2 hPa 0,0 l/m 0,0 km/h (0 Bft) N 360 0 min 0,000 mm 0 W/m 3,6 C 5,8 C 3,2 km/h (1 Bft) 99 %
12.04.2014 05:00 5,7 C 5,7 C 5,8 C 85 % 1015,1 hPa 0,0 l/m 1,6 km/h (1 Bft) N 360 0 min 0,000 mm 0 W/m 3,4 C 5,7 C 4,8 km/h (1 Bft) 100 %
12.04.2014 05:10 5,6 C 5,6 C 5,7 C 86 % 1015,2 hPa 0,0 l/m 0,0 km/h (0 Bft) N 360 0 min 0,000 mm 0 W/m 3,4 C 5,6 C 3,2 km/h (1 Bft) 100 %
12.04.2014 05:20 5,4 C 5,4 C 5,6 C 86 % 1015,2 hPa 0,0 l/m 0,0 km/h (0 Bft) N-NO 22 0 min 0,000 mm 0 W/m 3,3 C 5,4 C 3,2 km/h (1 Bft) 100 %
12.04.2014 05:30 5,4 C 5,3 C 5,4 C 86 % 1015,1 hPa 0,0 l/m 0,0 km/h (0 Bft) N-NO 22 0 min 0,000 mm 0 W/m 3,3 C 5,4 C 1,6 km/h (1 Bft) 100 %
12.04.2014 05:40 5,4 C 5,4 C 5,4 C 86 % 1015,1 hPa 0,0 l/m 0,0 km/h (0 Bft) N-NO 22 0 min 0,000 mm 0 W/m 3,3 C 5,4 C 3,2 km/h (1 Bft) 100 %
12.04.2014 05:50 5,4 C 5,4 C 5,4 C 86 % 1015,1 hPa 0,0 l/m 0,0 km/h (0 Bft) N-NO 22 0 min 0,000 mm 0 W/m 3,3 C 5,4 C 1,6 km/h (1 Bft) 100 %
12.04.2014 06:00 5,3 C 5,3 C 5,4 C 86 % 1015,0 hPa 0,0 l/m 0,0 km/h (0 Bft) N 0 0 min 0,000 mm 0 W/m 3,2 C 5,3 C 0,0 km/h (0 Bft) 100 %
12.04.2014 06:10 5,1 C 5,1 C 5,3 C 86 % 1015,0 hPa 0,0 l/m 0,0 km/h (0 Bft) N-NO 22 0 min 0,000 mm 0 W/m 3,0 C 5,1 C 3,2 km/h (1 Bft) 100 %
12.04.2014 06:20 5,0 C 5,0 C 5,1 C 87 % 1015,0 hPa 0,0 l/m 0,0 km/h (0 Bft) N-NO 22 0 min 0,000 mm 0 W/m 3,0 C 5,0 C 1,6 km/h (1 Bft) 100 %
12.04.2014 06:30 4,9 C 4,9 C 5,0 C 87 % 1015,1 hPa 0,0 l/m 0,0 km/h (0 Bft) N-NO 22 0 min 0,000 mm 0 W/m 2,9 C 4,9 C 1,6 km/h (1 Bft) 89 %
12.04.2014 06:40 4,8 C 4,8 C 4,9 C 87 % 1015,4 hPa 0,0 l/m 0,0 km/h (0 Bft) N-NO 22 0 min 0,000 mm 0 W/m 2,8 C 4,8 C 3,2 km/h (1 Bft) 100 %
12.04.2014 06:50 4,7 C 4,7 C 4,8 C 87 % 1015,6 hPa 0,0 l/m 0,0 km/h (0 Bft) N-NO 22 0 min 0,000 mm 7 W/m 2,7 C 4,7 C 3,2 km/h (1 Bft) 100 %
12.04.2014 07:00 4,6 C 4,6 C 4,7 C 87 % 1015,5 hPa 0,0 l/m 0,0 km/h (0 Bft) N-NO 22 0 min 0,000 mm 12 W/m 2,6 C 4,6 C 1,6 km/h (1 Bft) 100 %
12.04.2014 07:10 4,6 C 4,6 C 4,6 C 87 % 1015,7 hPa 0,0 l/m 0,0 km/h (0 Bft) N-NO 22 0 min 0,000 mm 21 W/m 2,6 C 4,6 C 3,2 km/h (1 Bft) 100 %
12.04.2014 07:20 4,7 C 4,6 C 4,7 C 87 % 1015,7 hPa 0,0 l/m 0,0 km/h (0 Bft) N-NO 22 0 min 0,000 mm 32 W/m 2,7 C 4,7 C 1,6 km/h (1 Bft) 100 %
12.04.2014 07:30 4,8 C 4,7 C 4,8 C 87 % 1015,8 hPa 0,0 l/m 0,0 km/h (0 Bft) N-NO 22 0 min 0,000 mm 44 W/m 2,8 C 4,8 C 3,2 km/h (1 Bft) 100 %
12.04.2014 07:40 5,1 C 4,8 C 5,1 C 87 % 1015,8 hPa 0,0 l/m 0,0 km/h (0 Bft) N-NO 22 0 min 0,000 mm 46 W/m 3,1 C 5,1 C 3,2 km/h (1 Bft) 100 %
12.04.2014 07:50 5,3 C 5,1 C 5,3 C 87 % 1015,7 hPa 0,0 l/m 0,0 km/h (0 Bft) N-NO 22 0 min 0,000 mm 40 W/m 3,3 C 5,3 C 1,6 km/h (1 Bft) 100 %
12.04.2014 08:00 5,5 C 5,3 C 5,5 C 87 % 1015,8 hPa 0,0 l/m 0,0 km/h (0 Bft) N 360 0 min 0,025 mm 46 W/m 3,5 C 5,5 C 4,8 km/h (1 Bft) 100 %
12.04.2014 08:10 5,6 C 5,5 C 5,6 C 87 % 1015,9 hPa 0,0 l/m 0,0 km/h (0 Bft) N 360 0 min 0,000 mm 47 W/m 3,6 C 5,6 C 3,2 km/h (1 Bft) 100 %
12.04.2014 08:20 5,7 C 5,6 C 5,7 C 87 % 1015,9 hPa 0,0 l/m 0,0 km/h (0 Bft) N 360 0 min 0,000 mm 69 W/m 3,7 C 5,7 C 3,2 km/h (1 Bft) 100 %
12.04.2014 08:30 5,9 C 5,7 C 5,9 C 87 % 1016,0 hPa 0,0 l/m 0,0 km/h (0 Bft) N 360 0 min 0,000 mm 118 W/m 3,9 C 5,9 C 1,6 km/h (1 Bft) 91 %
12.04.2014 08:40 6,4 C 5,9 C 6,4 C 87 % 1015,9 hPa 0,0 l/m 0,0 km/h (0 Bft) N 360 10 min 0,000 mm 225 W/m 4,4 C 6,4 C 1,6 km/h (1 Bft) 100 %
12.04.2014 08:50 6,9 C 6,4 C 6,9 C 87 % 1015,9 hPa 0,0 l/m 0,0 km/h (0 Bft) N 360 10 min 0,000 mm 278 W/m 4,9 C 6,9 C 3,2 km/h (1 Bft) 99 %
12.04.2014 09:00 7,8 C 6,9 C 7,8 C 86 % 1015,9 hPa 0,0 l/m 0,0 km/h (0 Bft) N 360 10 min 0,051 mm 299 W/m 5,6 C 7,8 C 1,6 km/h (1 Bft) 100 %
12.04.2014 09:10 8,7 C 7,8 C 8,7 C 85 % 1016,0 hPa 0,0 l/m 0,0 km/h (0 Bft) N 360 10 min 0,000 mm 323 W/m 6,3 C 8,7 C 1,6 km/h (1 Bft) 100 %
12.04.2014 09:20 9,8 C 8,8 C 9,8 C 82 % 1016,0 hPa 0,0 l/m 0,0 km/h (0 Bft) N 360 10 min 0,000 mm 367 W/m 6,9 C 9,8 C 3,2 km/h (1 Bft) 100 %
12.04.2014 09:30 10,8 C 9,8 C 10,8 C 81 % 1015,9 hPa 0,0 l/m 0,0 km/h (0 Bft) N 360 10 min 0,000 mm 381 W/m 7,7 C 10,8 C 1,6 km/h (1 Bft) 100 %
12.04.2014 09:40 11,8 C 10,8 C 11,8 C 77 % 1016,0 hPa 0,0 l/m 0,0 km/h (0 Bft) N-NW 337 10 min 0,000 mm 413 W/m 7,9 C 11,8 C 3,2 km/h (1 Bft) 100 %
12.04.2014 09:50 12,6 C 11,8 C 12,6 C 73 % 1016,1 hPa 0,0 l/m 0,0 km/h (0 Bft) N-NW 337 10 min 0,000 mm 438 W/m 7,9 C 12,6 C 1,6 km/h (1 Bft) 100 %
12.04.2014 10:00 13,3 C 12,6 C 13,3 C 70 % 1016,0 hPa 0,0 l/m 0,0 km/h (0 Bft) N-NO 22 10 min 0,178 mm 473 W/m 7,9 C 13,3 C 1,6 km/h (1 Bft) 99 %
12.04.2014 10:10 14,2 C 13,3 C 14,2 C 66 % 1016,0 hPa 0,0 l/m 0,0 km/h (0 Bft) S-SW 202 10 min 0,000 mm 506 W/m 7,9 C 14,2 C 4,8 km/h (1 Bft) 100 %
12.04.2014 10:20 14,5 C 14,2 C 14,5 C 63 % 1016,2 hPa 0,0 l/m 1,6 km/h (1 Bft) S-SO 157 10 min 0,000 mm 462 W/m 7,5 C 14,5 C 9,7 km/h (2 Bft) 100 %
12.04.2014 10:30 14,6 C 14,4 C 14,6 C 64 % 1016,3 hPa 0,0 l/m 3,2 km/h (1 Bft) S 180 10 min 0,000 mm 587 W/m 7,9 C 14,6 C 11,3 km/h (2 Bft) 100 %
12.04.2014 10:40 14,8 C 14,6 C 14,8 C 62 % 1016,1 hPa 0,0 l/m 3,2 km/h (1 Bft) S-SW 202 10 min 0,000 mm 599 W/m 7,6 C 14,8 C 11,3 km/h (2 Bft) 100 %
12.04.2014 10:50 15,1 C 14,8 C 15,1 C 62 % 1016,2 hPa 0,0 l/m 3,2 km/h (1 Bft) S-SO 157 10 min 0,000 mm 578 W/m 7,9 C 15,1 C 14,5 km/h (3 Bft) 100 %
12.04.2014 11:00 15,4 C 15,1 C 15,4 C 60 % 1016,1 hPa 0,0 l/m 3,2 km/h (1 Bft) S 180 10 min 0,279 mm 612 W/m 7,7 C 15,4 C 9,7 km/h (2 Bft) 100 %
12.04.2014 11:10 15,5 C 15,4 C 15,5 C 63 % 1016,1 hPa 0,0 l/m 3,2 km/h (1 Bft) S-SW 202 10 min 0,000 mm 649 W/m 8,5 C 15,5 C 11,3 km/h (2 Bft) 100 %
12.04.2014 11:20 15,7 C 15,4 C 15,7 C 64 % 1016,1 hPa 0,0 l/m 1,6 km/h (1 Bft) S 180 10 min 0,000 mm 680 W/m 8,9 C 15,7 C 8,0 km/h (2 Bft) 100 %
12.04.2014 11:30 15,9 C 15,7 C 15,9 C 60 % 1016,0 hPa 0,0 l/m 3,2 km/h (1 Bft) S-SO 157 10 min 0,000 mm 731 W/m 8,1 C 15,9 C 16,1 km/h (3 Bft) 100 %
12.04.2014 11:40 16,2 C 15,9 C 16,2 C 60 % 1015,9 hPa 0,0 l/m 6,4 km/h (2 Bft) S-SW 202 10 min 0,000 mm 657 W/m 8,4 C 16,2 C 19,3 km/h (3 Bft) 100 %
12.04.2014 11:50 16,4 C 16,2 C 16,5 C 53 % 1015,9 hPa 0,0 l/m 3,2 km/h (1 Bft) S-SW 202 10 min 0,000 mm 661 W/m 6,8 C 16,4 C 11,3 km/h (2 Bft) 100 %
12.04.2014 12:00 16,6 C 16,4 C 16,6 C 55 % 1015,9 hPa 0,0 l/m 4,8 km/h (1 Bft) S-SW 202 10 min 0,356 mm 675 W/m 7,5 C 16,6 C 17,7 km/h (3 Bft) 100 %
12.04.2014 12:10 16,7 C 16,6 C 16,7 C 57 % 1015,8 hPa 0,0 l/m 1,6 km/h (1 Bft) S-SW 202 10 min 0,000 mm 680 W/m 8,1 C 16,7 C 8,0 km/h (2 Bft) 100 %
12.04.2014 12:20 17,0 C 16,7 C 17,0 C 51 % 1015,8 hPa 0,0 l/m 3,2 km/h (1 Bft) O 90 10 min 0,000 mm 686 W/m 6,8 C 17,0 C 14,5 km/h (3 Bft) 100 %
12.04.2014 12:30 17,3 C 17,0 C 17,3 C 51 % 1015,6 hPa 0,0 l/m 6,4 km/h (2 Bft) S-SW 202 10 min 0,000 mm 710 W/m 7,1 C 17,3 C 16,1 km/h (3 Bft) 100 %
12.04.2014 12:40 17,4 C 17,1 C 17,4 C 52 % 1015,5 hPa 0,0 l/m 4,8 km/h (1 Bft) S-SW 202 10 min 0,000 mm 705 W/m 7,4 C 17,4 C 16,1 km/h (3 Bft) 100 %
12.04.2014 12:50 17,5 C 17,4 C 17,6 C 48 % 1015,4 hPa 0,0 l/m 3,2 km/h (1 Bft) SO 135 10 min 0,000 mm 740 W/m 6,4 C 17,5 C 12,9 km/h (3 Bft) 100 %
12.04.2014 13:00 17,9 C 17,4 C 17,9 C 50 % 1015,2 hPa 0,0 l/m 3,2 km/h (1 Bft) S-SW 202 10 min 0,381 mm 756 W/m 7,3 C 17,9 C 16,1 km/h (3 Bft) 99 %
12.04.2014 13:10 18,3 C 17,9 C 18,3 C 47 % 1015,2 hPa 0,0 l/m 6,4 km/h (2 Bft) S-SW 202 10 min 0,000 mm 786 W/m 6,8 C 18,3 C 17,7 km/h (3 Bft) 99 %
12.04.2014 13:20 18,5 C 18,3 C 18,6 C 47 % 1015,0 hPa 0,0 l/m 1,6 km/h (1 Bft) SW 225 10 min 0,000 mm 740 W/m 7,0 C 18,5 C 11,3 km/h (2 Bft) 100 %
12.04.2014 13:30 18,7 C 18,5 C 18,7 C 47 % 1014,9 hPa 0,0 l/m 1,6 km/h (1 Bft) SW 225 10 min 0,000 mm 752 W/m 7,2 C 18,7 C 11,3 km/h (2 Bft) 100 %
12.04.2014 13:40 18,8 C 18,7 C 18,9 C 44 % 1014,9 hPa 0,0 l/m 4,8 km/h (1 Bft) W-SW 247 10 min 0,000 mm 731 W/m 6,3 C 18,8 C 17,7 km/h (3 Bft) 100 %
12.04.2014 13:50 18,5 C 18,4 C 18,8 C 47 % 1014,9 hPa 0,0 l/m 0,0 km/h (0 Bft) O 90 10 min 0,000 mm 726 W/m 7,0 C 18,5 C 6,4 km/h (2 Bft) 100 %
12.04.2014 14:00 19,0 C 18,5 C 19,0 C 47 % 1014,8 hPa 0,0 l/m 3,2 km/h (1 Bft) S-SW 202 10 min 0,432 mm 745 W/m 7,4 C 19,0 C 14,5 km/h (3 Bft) 100 %
12.04.2014 14:10 19,4 C 19,0 C 19,4 C 46 % 1014,8 hPa 0,0 l/m 6,4 km/h (2 Bft) W 270 10 min 0,000 mm 737 W/m 7,5 C 19,4 C 14,5 km/h (3 Bft) 100 %
12.04.2014 14:20 19,7 C 19,4 C 19,7 C 43 % 1014,7 hPa 0,0 l/m 1,6 km/h (1 Bft) S-SW 202 10 min 0,000 mm 754 W/m 6,8 C 19,7 C 14,5 km/h (3 Bft) 100 %
12.04.2014 14:30 19,7 C 19,7 C 19,7 C 48 % 1014,5 hPa 0,0 l/m 1,6 km/h (1 Bft) S-SW 202 10 min 0,000 mm 733 W/m 8,4 C 19,7 C 11,3 km/h (2 Bft) 100 %
12.04.2014 14:40 19,7 C 19,6 C 19,7 C 46 % 1014,5 hPa 0,0 l/m 3,2 km/h (1 Bft) S-SW 202 10 min 0,000 mm 740 W/m 7,8 C 19,7 C 11,3 km/h (2 Bft) 100 %
12.04.2014 14:50 19,8 C 19,7 C 19,9 C 46 % 1014,5 hPa 0,0 l/m 3,2 km/h (1 Bft) SW 225 10 min 0,000 mm 731 W/m 7,8 C 19,8 C 14,5 km/h (3 Bft) 100 %
12.04.2014 15:00 19,9 C 19,8 C 20,0 C 44 % 1014,4 hPa 0,0 l/m 1,6 km/h (1 Bft) W-NW 292 10 min 0,406 mm 705 W/m 7,3 C 19,9 C 11,3 km/h (2 Bft) 100 %
12.04.2014 15:10 19,3 C 19,3 C 19,9 C 46 % 1014,3 hPa 0,0 l/m 4,8 km/h (1 Bft) SW 225 10 min 0,000 mm 236 W/m 7,4 C 19,3 C 16,1 km/h (3 Bft) 100 %
12.04.2014 15:20 19,6 C 19,2 C 19,6 C 44 % 1014,0 hPa 0,0 l/m 3,2 km/h (1 Bft) SW 225 10 min 0,000 mm 714 W/m 7,0 C 19,6 C 14,5 km/h (3 Bft) 100 %
12.04.2014 15:30 20,1 C 19,6 C 20,1 C 45 % 1014,0 hPa 0,0 l/m 4,8 km/h (1 Bft) S-SW 202 10 min 0,000 mm 693 W/m 7,8 C 20,1 C 17,7 km/h (3 Bft) 100 %
12.04.2014 15:40 20,1 C 20,0 C 20,1 C 44 % 1013,8 hPa 0,0 l/m 6,4 km/h (2 Bft) S-SW 202 10 min 0,000 mm 645 W/m 7,5 C 20,1 C 19,3 km/h (3 Bft) 100 %
12.04.2014 15:50 19,8 C 19,8 C 20,1 C 45 % 1013,7 hPa 0,0 l/m 4,8 km/h (1 Bft) S-SW 202 10 min 0,000 mm 656 W/m 7,5 C 19,8 C 17,7 km/h (3 Bft) 100 %
12.04.2014 16:00 19,9 C 19,7 C 19,9 C 45 % 1013,5 hPa 0,0 l/m 9,7 km/h (2 Bft) SW 225 10 min 0,356 mm 603 W/m 7,6 C 18,6 C 20,9 km/h (4 Bft) 99 %
12.04.2014 16:10 20,2 C 19,9 C 20,2 C 44 % 1013,5 hPa 0,0 l/m 8,0 km/h (2 Bft) S-SW 202 10 min 0,000 mm 585 W/m 7,6 C 19,6 C 19,3 km/h (3 Bft) 100 %
12.04.2014 16:20 20,1 C 20,1 C 20,2 C 42 % 1013,6 hPa 0,0 l/m 6,4 km/h (2 Bft) S-SW 202 10 min 0,000 mm 563 W/m 6,8 C 20,1 C 22,5 km/h (4 Bft) 100 %
12.04.2014 16:30 20,1 C 19,9 C 20,1 C 43 % 1013,5 hPa 0,0 l/m 3,2 km/h (1 Bft) SW 225 10 min 0,000 mm 520 W/m 7,1 C 20,1 C 11,3 km/h (2 Bft) 100 %
12.04.2014 16:40 20,1 C 20,1 C 20,1 C 43 % 1013,3 hPa 0,0 l/m 4,8 km/h (1 Bft) W-SW 247 10 min 0,000 mm 367 W/m 7,1 C 20,1 C 14,5 km/h (3 Bft) 100 %
12.04.2014 16:50 20,1 C 20,1 C 20,2 C 43 % 1013,2 hPa 0,0 l/m 8,0 km/h (2 Bft) W-SW 247 10 min 0,000 mm 185 W/m 7,1 C 19,5 C 19,3 km/h (3 Bft) 100 %
12.04.2014 17:00 20,2 C 20,1 C 20,2 C 44 % 1013,1 hPa 0,0 l/m 4,8 km/h (1 Bft) W 270 10 min 0,254 mm 202 W/m 7,6 C 20,2 C 16,1 km/h (3 Bft) 100 %
12.04.2014 17:10 20,2 C 20,2 C 20,3 C 44 % 1013,1 hPa 0,0 l/m 4,8 km/h (1 Bft) W 270 10 min 0,000 mm 258 W/m 7,6 C 20,2 C 14,5 km/h (3 Bft) 99 %
12.04.2014 17:20 19,8 C 19,8 C 20,3 C 44 % 1013,1 hPa 0,0 l/m 8,4 km/h (2 Bft) SW 215 10 min 0,000 mm 251 W/m 7,2 C 19,0 C 11,3 km/h (2 Bft) 100 %
12.04.2014 17:30 19,6 C 19,6 C 19,8 C 45 % 1013,0 hPa 0,0 l/m 6,0 km/h (2 Bft) W 261 10 min 0,000 mm 244 W/m 7,3 C 19,6 C 14,5 km/h (3 Bft) 99 %
12.04.2014 17:40 19,4 C 19,4 C 19,6 C 47 % 1012,9 hPa 0,0 l/m 2,1 km/h (1 Bft) W-SW 257 0 min 0,000 mm 132 W/m 7,8 C 19,4 C 9,7 km/h (2 Bft) 99 %
12.04.2014 17:50 19,3 C 19,3 C 19,4 C 47 % 1012,9 hPa 0,0 l/m 4,8 km/h (1 Bft) W 270 0 min 0,000 mm 146 W/m 7,7 C 19,3 C 16,1 km/h (3 Bft) 99 %
12.04.2014 18:00 19,2 C 19,2 C 19,3 C 50 % 1012,9 hPa 0,0 l/m 3,2 km/h (1 Bft) SW 225 0 min 0,152 mm 134 W/m 8,5 C 19,2 C 12,9 km/h (3 Bft) 96 %
12.04.2014 18:10 18,9 C 18,9 C 19,1 C 47 % 1013,0 hPa 0,0 l/m 4,8 km/h (1 Bft) W 270 0 min 0,000 mm 111 W/m 7,3 C 18,9 C 17,7 km/h (3 Bft) 99 %
12.04.2014 18:20 18,8 C 18,8 C 18,9 C 48 % 1013,1 hPa 0,0 l/m 6,4 km/h (2 Bft) W-NW 292 0 min 0,000 mm 104 W/m 7,6 C 18,8 C 17,7 km/h (3 Bft) 99 %
12.04.2014 18:30 18,7 C 18,7 C 18,8 C 48 % 1013,1 hPa 0,0 l/m 4,8 km/h (1 Bft) W 270 0 min 0,000 mm 95 W/m 7,5 C 18,7 C 16,1 km/h (3 Bft) 100 %
12.04.2014 18:40 18,4 C 18,4 C 18,7 C 48 % 1013,1 hPa 0,0 l/m 8,0 km/h (2 Bft) W 270 0 min 0,000 mm 74 W/m 7,2 C 17,7 C 17,7 km/h (3 Bft) 100 %
12.04.2014 18:50 18,1 C 18,1 C 18,4 C 49 % 1013,2 hPa 0,0 l/m 6,4 km/h (2 Bft) W-SW 247 0 min 0,000 mm 70 W/m 7,2 C 18,1 C 16,1 km/h (3 Bft) 99 %
12.04.2014 19:00 17,8 C 17,8 C 18,1 C 52 % 1013,2 hPa 0,0 l/m 3,2 km/h (1 Bft) W 270 0 min 0,102 mm 70 W/m 7,8 C 17,8 C 16,1 km/h (3 Bft) 88 %
12.04.2014 19:10 17,6 C 17,6 C 17,8 C 53 % 1013,3 hPa 0,0 l/m 3,2 km/h (1 Bft) W 270 0 min 0,000 mm 42 W/m 7,9 C 17,6 C 9,7 km/h (2 Bft) 99 %
12.04.2014 19:20 17,3 C 17,3 C 17,6 C 54 % 1013,3 hPa 0,0 l/m 3,2 km/h (1 Bft) W-NW 292 0 min 0,000 mm 30 W/m 7,9 C 17,3 C 11,3 km/h (2 Bft) 97 %
12.04.2014 19:30 17,1 C 17,1 C 17,3 C 55 % 1013,5 hPa 0,0 l/m 4,8 km/h (1 Bft) W-NW 292 0 min 0,000 mm 14 W/m 8,0 C 17,1 C 14,5 km/h (3 Bft) 100 %
12.04.2014 19:40 16,9 C 16,9 C 17,1 C 56 % 1013,5 hPa 0,0 l/m 3,2 km/h (1 Bft) NW 315 0 min 0,000 mm 5 W/m 8,1 C 16,9 C 9,7 km/h (2 Bft) 99 %
12.04.2014 19:50 16,8 C 16,8 C 16,9 C 57 % 1013,6 hPa 0,0 l/m 1,6 km/h (1 Bft) NW 315 0 min 0,000 mm 0 W/m 8,2 C 16,8 C 11,3 km/h (2 Bft) 98 %
12.04.2014 20:00 16,6 C 16,5 C 16,8 C 57 % 1013,7 hPa 0,0 l/m 3,2 km/h (1 Bft) NW 315 0 min 0,025 mm 0 W/m 8,0 C 16,6 C 8,0 km/h (2 Bft) 100 %
12.04.2014 20:10 16,2 C 16,2 C 16,5 C 58 % 1013,8 hPa 0,0 l/m 3,2 km/h (1 Bft) NW 315 0 min 0,000 mm 0 W/m 7,9 C 16,2 C 8,0 km/h (2 Bft) 98 %
12.04.2014 20:20 15,9 C 15,9 C 16,2 C 59 % 1013,8 hPa 0,0 l/m 1,6 km/h (1 Bft) NW 315 0 min 0,000 mm 0 W/m 7,9 C 15,9 C 8,0 km/h (2 Bft) 96 %
12.04.2014 20:30 15,7 C 15,7 C 15,9 C 60 % 1013,8 hPa 0,0 l/m 0,0 km/h (0 Bft) N-NW 337 0 min 0,000 mm 0 W/m 8,0 C 15,7 C 4,8 km/h (1 Bft) 99 %
12.04.2014 20:40 15,4 C 15,4 C 15,7 C 61 % 1014,1 hPa 0,0 l/m 0,0 km/h (0 Bft) N-NW 337 0 min 0,000 mm 0 W/m 7,9 C 15,4 C 6,4 km/h (2 Bft) 100 %
12.04.2014 20:50 15,1 C 15,1 C 15,4 C 63 % 1014,1 hPa 0,0 l/m 0,0 km/h (0 Bft) N-NW 337 0 min 0,000 mm 0 W/m 8,1 C 15,1 C 1,6 km/h (1 Bft) 100 %
12.04.2014 21:00 14,8 C 14,8 C 15,1 C 63 % 1014,2 hPa 0,0 l/m 0,0 km/h (0 Bft) N 360 0 min 0,025 mm 0 W/m 7,8 C 14,8 C 3,2 km/h (1 Bft) 100 %
12.04.2014 21:10 14,6 C 14,6 C 14,8 C 64 % 1014,3 hPa 0,0 l/m 0,0 km/h (0 Bft) N 360 0 min 0,000 mm 0 W/m 7,9 C 14,6 C 3,2 km/h (1 Bft) 100 %
12.04.2014 21:20 14,5 C 14,5 C 14,6 C 64 % 1014,4 hPa 0,0 l/m 0,0 km/h (0 Bft) N 360 0 min 0,000 mm 0 W/m 7,8 C 14,5 C 1,6 km/h (1 Bft) 100 %
12.04.2014 21:30 14,3 C 14,3 C 14,5 C 65 % 1014,5 hPa 0,0 l/m 0,0 km/h (0 Bft) N 360 0 min 0,000 mm 0 W/m 7,8 C 14,3 C 1,6 km/h (1 Bft) 100 %
12.04.2014 21:40 14,2 C 14,2 C 14,3 C 65 % 1014,6 hPa 0,0 l/m 0,0 km/h (0 Bft) N-NW 337 0 min 0,000 mm 0 W/m 7,7 C 14,2 C 3,2 km/h (1 Bft) 99 %
12.04.2014 21:50 14,1 C 14,1 C 14,2 C 67 % 1014,7 hPa 0,0 l/m 0,0 km/h (0 Bft) NW 315 0 min 0,000 mm 0 W/m 8,1 C 14,1 C 6,4 km/h (2 Bft) 100 %
12.04.2014 22:00 13,8 C 13,8 C 14,1 C 67 % 1014,8 hPa 0,0 l/m 0,0 km/h (0 Bft) NW 315 0 min 0,025 mm 0 W/m 7,8 C 13,8 C 1,6 km/h (1 Bft) 100 %
12.04.2014 22:10 13,7 C 13,7 C 13,8 C 67 % 1014,8 hPa 0,0 l/m 0,0 km/h (0 Bft) NW 315 0 min 0,000 mm 0 W/m 7,7 C 13,7 C 1,6 km/h (1 Bft) 100 %
12.04.2014 22:20 13,6 C 13,6 C 13,7 C 67 % 1014,9 hPa 0,0 l/m 0,0 km/h (0 Bft) N 360 0 min 0,000 mm 0 W/m 7,6 C 13,6 C 4,8 km/h (1 Bft) 100 %
12.04.2014 22:30 13,6 C 13,6 C 13,6 C 67 % 1015,1 hPa 0,0 l/m 1,6 km/h (1 Bft) N-NW 337 0 min 0,000 mm 0 W/m 7,6 C 13,6 C 6,4 km/h (2 Bft) 100 %
12.04.2014 22:40 13,6 C 13,6 C 13,6 C 67 % 1015,1 hPa 0,0 l/m 0,0 km/h (0 Bft) N-NW 337 0 min 0,000 mm 0 W/m 7,6 C 13,6 C 6,4 km/h (2 Bft) 99 %
12.04.2014 22:50 13,6 C 13,6 C 13,6 C 68 % 1015,1 hPa 0,0 l/m 1,6 km/h (1 Bft) N-NW 337 0 min 0,000 mm 0 W/m 7,8 C 13,6 C 9,7 km/h (2 Bft) 100 %
12.04.2014 23:00 13,5 C 13,5 C 13,6 C 67 % 1015,2 hPa 0,0 l/m 4,8 km/h (1 Bft) N-NW 337 0 min 0,025 mm 0 W/m 7,5 C 13,5 C 16,1 km/h (3 Bft) 100 %
12.04.2014 23:10 13,5 C 13,5 C 13,6 C 66 % 1015,2 hPa 0,0 l/m 1,6 km/h (1 Bft) N-NW 337 0 min 0,000 mm 0 W/m 7,3 C 13,5 C 8,0 km/h (2 Bft) 99 %
12.04.2014 23:20 13,4 C 13,4 C 13,5 C 66 % 1015,1 hPa 0,0 l/m 1,6 km/h (1 Bft) N-NW 337 0 min 0,000 mm 0 W/m 7,2 C 13,4 C 8,0 km/h (2 Bft) 99 %
12.04.2014 23:30 13,3 C 13,3 C 13,4 C 67 % 1015,1 hPa 0,0 l/m 0,0 km/h (0 Bft) N 360 0 min 0,000 mm 0 W/m 7,3 C 13,3 C 3,2 km/h (1 Bft) 99 %
12.04.2014 23:40 13,2 C 13,2 C 13,3 C 66 % 1015,1 hPa 0,0 l/m 1,6 km/h (1 Bft) N-NW 337 0 min 0,000 mm 0 W/m 7,0 C 13,2 C 9,7 km/h (2 Bft) 100 %
12.04.2014 23:50 13,1 C 13,1 C 13,2 C 66 % 1015,1 hPa 0,0 l/m 1,6 km/h (1 Bft) N-NW 337 0 min 0,000 mm 0 W/m 6,9 C 13,1 C 6,4 km/h (2 Bft) 100 %
_ Min-Zeit 07:00 07:00 07:10 16:20 17:40 - 00:00 - - - - - 07:00 07:00 06:00 02:10
Minimum _ 4,6 C 4,6 C 4,6 C 42 % 1012,9 hPa - 0,0 km/h (0 Bft) - - - - - 2,6 C 4,6 C 0,0 km/h (0 Bft) 88 %
_ Max-Zeit 17:10 17:10 17:10 06:20 00:00 00:00 16:00 - - 08:40 14:00 13:10 11:20 17:00 16:20 03:40
Maximum _ 20,3 C 20,2 C 20,3 C 87 % 1016,5 hPa 0,0 l/m 9,7 km/h
SW (2 Bft)
- - 10 min 0,432 mm 786 W/m 8,9 C 20,2 C 22,5 km/h
S (4 Bft)
100 %
Durchschnitt _ 12,8 C 12,7 C 12,9 C 66 % 1015,0 hPa #0,0 l/m 1,9 km/h (1 Bft) S-SW - #9:00 h #3,147 mm 410 W/m 6,2 C 12,8 C 7,9 km/h (2 Bft) 99 %
PRIVATE WETTERSTATION BILLIGHEIM-ALLFELD - www.neckar-odenwald-wetter.de - Holger Sonntag